Camp Lejeune, NC (28542)

1:48 AM EDT on July 24, 2016 (GMT -0400)
New River Marine Corps Air Station | | Change Station
Active Advisory: Heat Advisory

Elev 26 ft 34.71 °N, 77.44 °W | Updated 52 minutes ago

Clear
Clear
76 °F
Feels Like 76 °F
N
0
Wind Variable Wind from North

Today
High -- | Low -- °F
--% Chance of Precip.
Yesterday
High -- | Low -- °F
Precip. -- in
Pressure 30.01 in
Visibility 10.0 miles
Clouds Clear
Dew Point 73 °F
Humidity 91%
Rainfall 0.00 in
Snow Depth Not available.
6:13 AM 8:17 PM
Waning Gibbous, 79% visible
METAR KNCA 240456Z AUTO 00000KT 10SM CLR 24/23 A3001 RMK AO2 SLP163 T02440228 403330233
Pressure 30.01 in
Visibility 10.0 miles
Clouds Clear
Dew Point 73 °F
Humidity 91%
Rainfall 0.00 in
Snow Depth Not available.
6:13 AM 8:17 PM
Waning Gibbous, 79% visible
METAR KNCA 240456Z AUTO 00000KT 10SM CLR 24/23 A3001 RMK AO2 SLP163 T02440228 403330233

10-Day Weather Forecast

Almanac

Astronomy

Jul. 24, 2016 Rise Set
Actual Time
Civil Twilight
Nautical Twilight
Astronomical Twilight
Moon
Length of Visible Light
Length of Day
Tomorrow will be .
, % of the Moon is Illuminated

Today's Extremes

State Highs State Lows

Community

WunderPhotos

Upload Photos

1,927,039 photos uploaded!

WunderBlog® & News

Nearby

Air Quality

  Air Quality AQ Index Pollutant
Not available.

Snow Depth

Station Depth Elevation

Earthquake Activity

City Distance Mag. Time & Date
Minimum magnitude displayed is 2.5.

Coastal Water Temperatures

Place Temperature

Stations

Nearby Weather Stations

Station Location Temp. Windchill Dew Point Humidity Wind Precip. Elev Updated Type
                   

Watches & Warnings

Heat Advisory
Issued: 3:00 PM EDT Jul. 23, 2016 – National Weather Service

... Heat advisory in effect from 1 PM to 8 PM EDT Sunday...

The National Weather Service in Newport/Morehead City has issued
a heat advisory... which is in effect from 1 PM to 8 PM EDT
Sunday.

* Heat index values... up to 107.

* Timing... midday through early evening.

* Impacts...

Precautionary/preparedness actions...

A heat advisory means that a period of hot temperatures is
expected. The combination of hot temperatures and high humidity
will combine to create a situation in which heat illnesses are
possible. Drink plenty of fluids... stay in an air-conditioned
room... stay out of the sun... and check up on relatives and
neighbors. Keep pets inside if possible.

Take extra precautions... if you work or spend time outside. When
possible... reschedule strenuous activities to early morning or
evening. Know the signs and symptoms of heat exhaustion and heat
stroke. Wear light weight and loose fitting clothing when possible
and drink plenty of water.

To reduce risk during outdoor work... the occupational safety and
health administration recommends scheduling frequent rest breaks
in shaded or air conditioned environments. Anyone overcome by heat
should be moved to a cool and shaded location. Heat stroke is an
emergency... call 9 1 1.